Aviation Digital Data Service (ADDS)

Output produced by METARs form (1816 UTC 19 April 2019)
found at http://www.aviationweather.gov/metar/data/
 
METAR text: KGYY 191745Z 35025G38KT 10SM BKN009 07/04 A2983
Conditions at: KGYY (GARY REGIONAL , IN, US) observed 1745 UTC 19 April 2019
Temperature: 7.0°C (45°F)
Dewpoint: 4.0°C (39°F) [RH = 81%]
Pressure (altimeter): 29.83 inches Hg (1010.2 mb)
Winds: from the N (350 degrees) at 29 MPH (25 knots; 12.9 m/s)
gusting to 44 MPH (38 knots; 19.5 m/s)
Visibility: 10 or more miles (16+ km)
Ceiling: 900 feet AGL
Clouds: broken clouds at 900 feet AGL
Weather: no significant weather observed at this time

METAR text: KGYY 191645Z 34022G35KT 10SM BKN009 06/04 A2984
Conditions at: KGYY (GARY REGIONAL , IN, US) observed 1645 UTC 19 April 2019
Temperature: 6.0°C (43°F)
Dewpoint: 4.0°C (39°F) [RH = 87%]
Pressure (altimeter): 29.84 inches Hg (1010.6 mb)
Winds: from the NNW (340 degrees) at 25 MPH (22 knots; 11.3 m/s)
gusting to 40 MPH (35 knots; 18.0 m/s)
Visibility: 10 or more miles (16+ km)
Ceiling: 900 feet AGL
Clouds: broken clouds at 900 feet AGL
Weather: no significant weather observed at this time

METAR text: KGYY 191245Z 35022G36KT 10SM OVC009 05/04 A2978
Conditions at: KGYY (GARY REGIONAL , IN, US) observed 1245 UTC 19 April 2019
Temperature: 5.0°C (41°F)
Dewpoint: 4.0°C (39°F) [RH = 93%]
Pressure (altimeter): 29.78 inches Hg (1008.5 mb)
Winds: from the N (350 degrees) at 25 MPH (22 knots; 11.3 m/s)
gusting to 41 MPH (36 knots; 18.5 m/s)
Visibility: 10 or more miles (16+ km)
Ceiling: 900 feet AGL
Clouds: overcast cloud deck at 900 feet AGL
Weather: no significant weather observed at this time

METAR text: KGYY 191145Z 35024G36KT 10SM OVC009 05/04 A2978
Conditions at: KGYY (GARY REGIONAL , IN, US) observed 1145 UTC 19 April 2019
Temperature: 5.0°C (41°F)
Dewpoint: 4.0°C (39°F) [RH = 93%]
Pressure (altimeter): 29.78 inches Hg (1008.5 mb)
Winds: from the N (350 degrees) at 28 MPH (24 knots; 12.3 m/s)
gusting to 41 MPH (36 knots; 18.5 m/s)
Visibility: 10 or more miles (16+ km)
Ceiling: 900 feet AGL
Clouds: overcast cloud deck at 900 feet AGL
Weather: no significant weather observed at this time

METAR text: KGYY 191045Z 35021G34KT 10SM OVC009 05/04 A2976
Conditions at: KGYY (GARY REGIONAL , IN, US) observed 1045 UTC 19 April 2019
Temperature: 5.0°C (41°F)
Dewpoint: 4.0°C (39°F) [RH = 93%]
Pressure (altimeter): 29.76 inches Hg (1007.9 mb)
Winds: from the N (350 degrees) at 24 MPH (21 knots; 10.8 m/s)
gusting to 39 MPH (34 knots; 17.5 m/s)
Visibility: 10 or more miles (16+ km)
Ceiling: 900 feet AGL
Clouds: overcast cloud deck at 900 feet AGL
Weather: no significant weather observed at this time

METAR text: KGYY 190945Z 35021G34KT 10SM OVC011 05/04 A2974
Conditions at: KGYY (GARY REGIONAL , IN, US) observed 0945 UTC 19 April 2019
Temperature: 5.0°C (41°F)
Dewpoint: 4.0°C (39°F) [RH = 93%]
Pressure (altimeter): 29.74 inches Hg (1007.2 mb)
Winds: from the N (350 degrees) at 24 MPH (21 knots; 10.8 m/s)
gusting to 39 MPH (34 knots; 17.5 m/s)
Visibility: 10 or more miles (16+ km)
Ceiling: 1100 feet AGL
Clouds: overcast cloud deck at 1100 feet AGL
Weather: no significant weather observed at this time

METAR text: KGYY 190915Z AUTO 35018G26KT 10SM OVC009 05/04 A2974 RMK AO2 T00530042
Conditions at: KGYY (GARY REGIONAL , IN, US) observed 0915 UTC 19 April 2019
Temperature: 5.3°C (42°F)
Dewpoint: 4.2°C (40°F) [RH = 93%]
Pressure (altimeter): 29.74 inches Hg (1007.2 mb)
Winds: from the N (350 degrees) at 21 MPH (18 knots; 9.3 m/s)
gusting to 30 MPH (26 knots; 13.4 m/s)
Visibility: 10 or more miles (16+ km)
Ceiling: 900 feet AGL
Clouds: overcast cloud deck at 900 feet AGL
Weather: automated observation with no human augmentation;
there may or may not be significant weather present at this time

METAR text: KGYY 190855Z AUTO 36015G23KT 10SM -RA OVC009 05/04 A2975 RMK AO2 T00540041
Conditions at: KGYY (GARY REGIONAL , IN, US) observed 0855 UTC 19 April 2019
Temperature: 5.4°C (42°F)
Dewpoint: 4.1°C (39°F) [RH = 91%]
Pressure (altimeter): 29.75 inches Hg (1007.5 mb)
Winds: from the N (360 degrees) at 17 MPH (15 knots; 7.7 m/s)
gusting to 26 MPH (23 knots; 11.8 m/s)
Visibility: 10 or more miles (16+ km)
Ceiling: 900 feet AGL
Clouds: overcast cloud deck at 900 feet AGL
Weather: -RA  (light rain)

METAR text: KGYY 190835Z AUTO 36015G22KT 10SM BKN011 OVC020 05/04 A2974 RMK AO2 T00530040
Conditions at: KGYY (GARY REGIONAL , IN, US) observed 0835 UTC 19 April 2019
Temperature: 5.3°C (42°F)
Dewpoint: 4.0°C (39°F) [RH = 91%]
Pressure (altimeter): 29.74 inches Hg (1007.2 mb)
Winds: from the N (360 degrees) at 17 MPH (15 knots; 7.7 m/s)
gusting to 25 MPH (22 knots; 11.3 m/s)
Visibility: 10 or more miles (16+ km)
Ceiling: 1100 feet AGL
Clouds: broken clouds at 1100 feet AGL
overcast cloud deck at 2000 feet AGL
Weather: automated observation with no human augmentation;
there may or may not be significant weather present at this time

METAR text: KGYY 190815Z AUTO 36015G26KT 10SM BKN011 BKN018 OVC023 06/04 A2975 RMK AO2 T00550040
Conditions at: KGYY (GARY REGIONAL , IN, US) observed 0815 UTC 19 April 2019
Temperature: 5.5°C (42°F)
Dewpoint: 4.0°C (39°F) [RH = 90%]
Pressure (altimeter): 29.75 inches Hg (1007.5 mb)
Winds: from the N (360 degrees) at 17 MPH (15 knots; 7.7 m/s)
gusting to 30 MPH (26 knots; 13.4 m/s)
Visibility: 10 or more miles (16+ km)
Ceiling: 1100 feet AGL
Clouds: broken clouds at 1100 feet AGL
broken clouds at 1800 feet AGL
overcast cloud deck at 2300 feet AGL
Weather: automated observation with no human augmentation;
there may or may not be significant weather present at this time

METAR text: KGYY 190755Z AUTO 36017G23KT 10SM SCT011 OVC023 06/04 A2974 RMK AO2 T00560040
Conditions at: KGYY (GARY REGIONAL , IN, US) observed 0755 UTC 19 April 2019
Temperature: 5.6°C (42°F)
Dewpoint: 4.0°C (39°F) [RH = 89%]
Pressure (altimeter): 29.74 inches Hg (1007.2 mb)
Winds: from the N (360 degrees) at 20 MPH (17 knots; 8.7 m/s)
gusting to 26 MPH (23 knots; 11.8 m/s)
Visibility: 10 or more miles (16+ km)
Ceiling: 2300 feet AGL
Clouds: scattered clouds at 1100 feet AGL
overcast cloud deck at 2300 feet AGL
Weather: automated observation with no human augmentation;
there may or may not be significant weather present at this time

METAR text: KGYY 190735Z AUTO 36017G25KT 10SM SCT011 OVC023 06/04 A2976 RMK AO2 T00600041
Conditions at: KGYY (GARY REGIONAL , IN, US) observed 0735 UTC 19 April 2019
Temperature: 6.0°C (43°F)
Dewpoint: 4.1°C (39°F) [RH = 88%]
Pressure (altimeter): 29.76 inches Hg (1007.9 mb)
Winds: from the N (360 degrees) at 20 MPH (17 knots; 8.7 m/s)
gusting to 29 MPH (25 knots; 12.9 m/s)
Visibility: 10 or more miles (16+ km)
Ceiling: 2300 feet AGL
Clouds: scattered clouds at 1100 feet AGL
overcast cloud deck at 2300 feet AGL
Weather: automated observation with no human augmentation;
there may or may not be significant weather present at this time

METAR text: KGYY 190715Z AUTO 36019G24KT 10SM BKN025 OVC032 06/04 A2977 RMK AO2 T00600042
Conditions at: KGYY (GARY REGIONAL , IN, US) observed 0715 UTC 19 April 2019
Temperature: 6.0°C (43°F)
Dewpoint: 4.2°C (40°F) [RH = 88%]
Pressure (altimeter): 29.77 inches Hg (1008.2 mb)
Winds: from the N (360 degrees) at 22 MPH (19 knots; 9.8 m/s)
gusting to 28 MPH (24 knots; 12.3 m/s)
Visibility: 10 or more miles (16+ km)
Ceiling: 2500 feet AGL
Clouds: broken clouds at 2500 feet AGL
overcast cloud deck at 3200 feet AGL
Weather: automated observation with no human augmentation;
there may or may not be significant weather present at this time

METAR text: KGYY 190655Z AUTO 35019G25KT 10SM SCT020 BKN028 OVC032 06/04 A2978 RMK AO2 T00620043
Conditions at: KGYY (GARY REGIONAL , IN, US) observed 0655 UTC 19 April 2019
Temperature: 6.2°C (43°F)
Dewpoint: 4.3°C (40°F) [RH = 88%]
Pressure (altimeter): 29.78 inches Hg (1008.5 mb)
Winds: from the N (350 degrees) at 22 MPH (19 knots; 9.8 m/s)
gusting to 29 MPH (25 knots; 12.9 m/s)
Visibility: 10 or more miles (16+ km)
Ceiling: 2800 feet AGL
Clouds: scattered clouds at 2000 feet AGL
broken clouds at 2800 feet AGL
overcast cloud deck at 3200 feet AGL
Weather: automated observation with no human augmentation;
there may or may not be significant weather present at this time

METAR text: KGYY 190635Z AUTO 35017G23KT 10SM SCT011 BKN025 OVC030 06/05 A2978 RMK AO2 T00620046
Conditions at: KGYY (GARY REGIONAL , IN, US) observed 0635 UTC 19 April 2019
Temperature: 6.2°C (43°F)
Dewpoint: 4.6°C (40°F) [RH = 89%]
Pressure (altimeter): 29.78 inches Hg (1008.5 mb)
Winds: from the N (350 degrees) at 20 MPH (17 knots; 8.7 m/s)
gusting to 26 MPH (23 knots; 11.8 m/s)
Visibility: 10 or more miles (16+ km)
Ceiling: 2500 feet AGL
Clouds: scattered clouds at 1100 feet AGL
broken clouds at 2500 feet AGL
overcast cloud deck at 3000 feet AGL
Weather: automated observation with no human augmentation;
there may or may not be significant weather present at this time

METAR text: KGYY 190615Z AUTO 35015G21KT 10SM SCT018 SCT025 OVC030 06/05 A2978 RMK AO2 T00630049
Conditions at: KGYY (GARY REGIONAL , IN, US) observed 0615 UTC 19 April 2019
Temperature: 6.3°C (43°F)
Dewpoint: 4.9°C (41°F) [RH = 91%]
Pressure (altimeter): 29.78 inches Hg (1008.5 mb)
Winds: from the N (350 degrees) at 17 MPH (15 knots; 7.7 m/s)
gusting to 24 MPH (21 knots; 10.8 m/s)
Visibility: 10 or more miles (16+ km)
Ceiling: 3000 feet AGL
Clouds: scattered clouds at 1800 feet AGL
scattered clouds at 2500 feet AGL
overcast cloud deck at 3000 feet AGL
Weather: automated observation with no human augmentation;
there may or may not be significant weather present at this time

METAR text: KGYY 190555Z AUTO 35014G21KT 10SM BKN033 OVC110 07/05 A2977 RMK AO2 60001 T00650052 10065 20056 401900056
Conditions at: KGYY (GARY REGIONAL , IN, US) observed 0555 UTC 19 April 2019
Temperature: 6.5°C (44°F)
Dewpoint: 5.2°C (41°F) [RH = 91%]
Pressure (altimeter): 29.77 inches Hg (1008.2 mb)
Winds: from the N (350 degrees) at 16 MPH (14 knots; 7.2 m/s)
gusting to 24 MPH (21 knots; 10.8 m/s)
Visibility: 10 or more miles (16+ km)
Ceiling: 3300 feet AGL
Clouds: broken clouds at 3300 feet AGL
overcast cloud deck at 11000 feet AGL
Weather: automated observation with no human augmentation;
there may or may not be significant weather present at this time

METAR text: KGYY 190535Z AUTO 36013G19KT 10SM BKN033 OVC110 06/05 A2977 RMK AO2 T00630051
Conditions at: KGYY (GARY REGIONAL , IN, US) observed 0535 UTC 19 April 2019
Temperature: 6.3°C (43°F)
Dewpoint: 5.1°C (41°F) [RH = 92%]
Pressure (altimeter): 29.77 inches Hg (1008.2 mb)
Winds: from the N (360 degrees) at 15 MPH (13 knots; 6.7 m/s)
gusting to 22 MPH (19 knots; 9.8 m/s)
Visibility: 10 or more miles (16+ km)
Ceiling: 3300 feet AGL
Clouds: broken clouds at 3300 feet AGL
overcast cloud deck at 11000 feet AGL
Weather: automated observation with no human augmentation;
there may or may not be significant weather present at this time

METAR text: KGYY 190515Z AUTO 36012KT 10SM SCT035 BKN120 06/05 A2977 RMK AO2 T00620053
Conditions at: KGYY (GARY REGIONAL , IN, US) observed 0515 UTC 19 April 2019
Temperature: 6.2°C (43°F)
Dewpoint: 5.3°C (42°F) [RH = 94%]
Pressure (altimeter): 29.77 inches Hg (1008.2 mb)
Winds: from the N (360 degrees) at 14 MPH (12 knots; 6.2 m/s)
Visibility: 10 or more miles (16+ km)
Ceiling: 12000 feet AGL
Clouds: scattered clouds at 3500 feet AGL
broken clouds at 12000 feet AGL
Weather: automated observation with no human augmentation;
there may or may not be significant weather present at this time

METAR text: KGYY 190455Z AUTO 36011KT 10SM SCT032 SCT043 BKN120 06/05 A2978 RMK AO2 P0001 T00600053
Conditions at: KGYY (GARY REGIONAL , IN, US) observed 0455 UTC 19 April 2019
Temperature: 6.0°C (43°F)
Dewpoint: 5.3°C (42°F) [RH = 95%]
Pressure (altimeter): 29.78 inches Hg (1008.5 mb)
Winds: from the N (360 degrees) at 13 MPH (11 knots; 5.7 m/s)
Visibility: 10 or more miles (16+ km)
Ceiling: 12000 feet AGL
Clouds: scattered clouds at 3200 feet AGL
scattered clouds at 4300 feet AGL
broken clouds at 12000 feet AGL
Weather: automated observation with no human augmentation;
there may or may not be significant weather present at this time

METAR text: KGYY 190435Z AUTO 01013G16KT 10SM SCT008 BKN012 OVC041 06/06 A2978 RMK AO2 P0001 T00600055
Conditions at: KGYY (GARY REGIONAL , IN, US) observed 0435 UTC 19 April 2019
Temperature: 6.0°C (43°F)
Dewpoint: 5.5°C (42°F) [RH = 97%]
Pressure (altimeter): 29.78 inches Hg (1008.5 mb)
Winds: from the N (10 degrees) at 15 MPH (13 knots; 6.7 m/s)
gusting to 18 MPH (16 knots; 8.2 m/s)
Visibility: 10 or more miles (16+ km)
Ceiling: 1200 feet AGL
Clouds: scattered clouds at 800 feet AGL
broken clouds at 1200 feet AGL
overcast cloud deck at 4100 feet AGL
Weather: automated observation with no human augmentation;
there may or may not be significant weather present at this time

METAR text: KGYY 190415Z AUTO 01011G20KT 10SM BKN010 OVC016 06/06 A2979 RMK AO2 P0001 T00620055
Conditions at: KGYY (GARY REGIONAL , IN, US) observed 0415 UTC 19 April 2019
Temperature: 6.2°C (43°F)
Dewpoint: 5.5°C (42°F) [RH = 95%]
Pressure (altimeter): 29.79 inches Hg (1008.9 mb)
Winds: from the N (10 degrees) at 13 MPH (11 knots; 5.7 m/s)
gusting to 23 MPH (20 knots; 10.3 m/s)
Visibility: 10 or more miles (16+ km)
Ceiling: 1000 feet AGL
Clouds: broken clouds at 1000 feet AGL
overcast cloud deck at 1600 feet AGL
Weather: automated observation with no human augmentation;
there may or may not be significant weather present at this time

METAR text: KGYY 190355Z AUTO 36013G16KT 10SM OVC017 06/05 A2978 RMK AO2 T00630052
Conditions at: KGYY (GARY REGIONAL , IN, US) observed 0355 UTC 19 April 2019
Temperature: 6.3°C (43°F)
Dewpoint: 5.2°C (41°F) [RH = 93%]
Pressure (altimeter): 29.78 inches Hg (1008.5 mb)
Winds: from the N (360 degrees) at 15 MPH (13 knots; 6.7 m/s)
gusting to 18 MPH (16 knots; 8.2 m/s)
Visibility: 10 or more miles (16+ km)
Ceiling: 1700 feet AGL
Clouds: overcast cloud deck at 1700 feet AGL
Weather: automated observation with no human augmentation;
there may or may not be significant weather present at this time

METAR text: KGYY 190335Z AUTO 36012G16KT 10SM OVC020 06/05 A2977 RMK AO2 T00630052
Conditions at: KGYY (GARY REGIONAL , IN, US) observed 0335 UTC 19 April 2019
Temperature: 6.3°C (43°F)
Dewpoint: 5.2°C (41°F) [RH = 93%]
Pressure (altimeter): 29.77 inches Hg (1008.2 mb)
Winds: from the N (360 degrees) at 14 MPH (12 knots; 6.2 m/s)
gusting to 18 MPH (16 knots; 8.2 m/s)
Visibility: 10 or more miles (16+ km)
Ceiling: 2000 feet AGL
Clouds: overcast cloud deck at 2000 feet AGL
Weather: automated observation with no human augmentation;
there may or may not be significant weather present at this time

METAR text: KGYY 190315Z AUTO 01007KT 10SM OVC022 06/05 A2977 RMK AO2 T00600052
Conditions at: KGYY (GARY REGIONAL , IN, US) observed 0315 UTC 19 April 2019
Temperature: 6.0°C (43°F)
Dewpoint: 5.2°C (41°F) [RH = 95%]
Pressure (altimeter): 29.77 inches Hg (1008.2 mb)
Winds: from the N (10 degrees) at 8 MPH (7 knots; 3.6 m/s)
Visibility: 10 or more miles (16+ km)
Ceiling: 2200 feet AGL
Clouds: overcast cloud deck at 2200 feet AGL
Weather: automated observation with no human augmentation;
there may or may not be significant weather present at this time

METAR text: KGYY 190245Z 02010KT 10SM OVC024 06/06 A2978
Conditions at: KGYY (GARY REGIONAL , IN, US) observed 0245 UTC 19 April 2019
Temperature: 6.0°C (43°F)
Dewpoint: 6.0°C (43°F) [RH = 100%]
Pressure (altimeter): 29.78 inches Hg (1008.5 mb)
Winds: from the NNE (20 degrees) at 12 MPH (10 knots; 5.1 m/s)
Visibility: 10 or more miles (16+ km)
Ceiling: 2400 feet AGL
Clouds: overcast cloud deck at 2400 feet AGL
Weather: no significant weather observed at this time

METAR text: KGYY 190145Z 36008KT 4SM BR OVC007 06/06 A2979
Conditions at: KGYY (GARY REGIONAL , IN, US) observed 0145 UTC 19 April 2019
Temperature: 6.0°C (43°F)
Dewpoint: 6.0°C (43°F) [RH = 100%]
Pressure (altimeter): 29.79 inches Hg (1008.9 mb)
Winds: from the N (360 degrees) at 9 MPH (8 knots; 4.1 m/s)
Visibility: 4 miles ( 6 km)
Ceiling: 700 feet AGL
Clouds: overcast cloud deck at 700 feet AGL
Weather: BR  (mist)

METAR text: KGYY 190045Z 02005KT 7SM BKN005 OVC011 06/06 A2979
Conditions at: KGYY (GARY REGIONAL , IN, US) observed 0045 UTC 19 April 2019
Temperature: 6.0°C (43°F)
Dewpoint: 6.0°C (43°F) [RH = 100%]
Pressure (altimeter): 29.79 inches Hg (1008.9 mb)
Winds: from the NNE (20 degrees) at 6 MPH (5 knots; 2.6 m/s)
Visibility: 7 miles (11 km)
Ceiling: 500 feet AGL
Clouds: broken clouds at 500 feet AGL
overcast cloud deck at 1100 feet AGL
Weather: no significant weather observed at this time

METAR text: KGYY 182345Z 03008KT 7SM OVC005 06/06 A2976 RMK RAE28
Conditions at: KGYY (GARY REGIONAL , IN, US) observed 2345 UTC 18 April 2019
Temperature: 6.0°C (43°F)
Dewpoint: 6.0°C (43°F) [RH = 100%]
Pressure (altimeter): 29.76 inches Hg (1007.9 mb)
Winds: from the NNE (30 degrees) at 9 MPH (8 knots; 4.1 m/s)
Visibility: 7 miles (11 km)
Ceiling: 500 feet AGL
Clouds: overcast cloud deck at 500 feet AGL
Weather: no significant weather observed at this time

METAR text: KGYY 182245Z 03006KT 2SM -RA OVC003 06/06 A2974
Conditions at: KGYY (GARY REGIONAL , IN, US) observed 2245 UTC 18 April 2019
Temperature: 6.0°C (43°F)
Dewpoint: 6.0°C (43°F) [RH = 100%]
Pressure (altimeter): 29.74 inches Hg (1007.2 mb)
Winds: from the NNE (30 degrees) at 7 MPH (6 knots; 3.1 m/s)
Visibility: 2.00 miles (3.22 km)
Ceiling: 300 feet AGL
Clouds: overcast cloud deck at 300 feet AGL
Weather: -RA  (light rain)

METAR text: KGYY 182145Z 03010KT 1 3/4SM -RA OVC003 07/07 A2970
Conditions at: KGYY (GARY REGIONAL , IN, US) observed 2145 UTC 18 April 2019
Temperature: 7.0°C (45°F)
Dewpoint: 7.0°C (45°F) [RH = 100%]
Pressure (altimeter): 29.70 inches Hg (1005.8 mb)
Winds: from the NNE (30 degrees) at 12 MPH (10 knots; 5.1 m/s)
Visibility: 1.75 miles (2.82 km)
Ceiling: 300 feet AGL
Clouds: overcast cloud deck at 300 feet AGL
Weather: -RA  (light rain)

METAR text: KGYY 182122Z 36009KT 1 3/4SM -RA OVC003 07/07 A2968
Conditions at: KGYY (GARY REGIONAL , IN, US) observed 2122 UTC 18 April 2019
Temperature: 7.0°C (45°F)
Dewpoint: 7.0°C (45°F) [RH = 100%]
Pressure (altimeter): 29.68 inches Hg (1005.2 mb)
Winds: from the N (360 degrees) at 10 MPH (9 knots; 4.6 m/s)
Visibility: 1.75 miles (2.82 km)
Ceiling: 300 feet AGL
Clouds: overcast cloud deck at 300 feet AGL
Weather: -RA  (light rain)

METAR text: KGYY 182045Z VRB05KT 1 1/2SM -RA OVC007 08/08 A2969
Conditions at: KGYY (GARY REGIONAL , IN, US) observed 2045 UTC 18 April 2019
Temperature: 8.0°C (46°F)
Dewpoint: 8.0°C (46°F) [RH = 100%]
Pressure (altimeter): 29.69 inches Hg (1005.5 mb)
Winds: variable direction winds at 6 MPH (5 knots; 2.6 m/s)
Visibility: 1.50 miles (2.41 km)
Ceiling: 700 feet AGL
Clouds: overcast cloud deck at 700 feet AGL
Weather: -RA  (light rain)

METAR text: KGYY 181945Z VRB05KT 1SM R30/6000 -RA OVC005 09/09 A2967
Conditions at: KGYY (GARY REGIONAL , IN, US) observed 1945 UTC 18 April 2019
Temperature: 9.0°C (48°F)
Dewpoint: 9.0°C (48°F) [RH = 100%]
Pressure (altimeter): 29.67 inches Hg (1004.8 mb)
Winds: variable direction winds at 6 MPH (5 knots; 2.6 m/s)
Visibility: 1.00 miles (1.61 km)
Ceiling: 500 feet AGL
Clouds: overcast cloud deck at 500 feet AGL
Weather: -RA  (light rain)

METAR text: KGYY 181845Z 32005KT 1SM R30/6000 -RA OVC007 11/11 A2965
Conditions at: KGYY (GARY REGIONAL , IN, US) observed 1845 UTC 18 April 2019
Temperature: 11.0°C (52°F)
Dewpoint: 11.0°C (52°F) [RH = 100%]
Pressure (altimeter): 29.65 inches Hg (1004.1 mb)
Winds: from the NW (320 degrees) at 6 MPH (5 knots; 2.6 m/s)
Visibility: 1.00 miles (1.61 km)
Ceiling: 700 feet AGL
Clouds: overcast cloud deck at 700 feet AGL
Weather: -RA  (light rain)

METAR text: KGYY 181745Z 26009KT 1SM R30/6000 -RA OVC008 12/12 A2962
Conditions at: KGYY (GARY REGIONAL , IN, US) observed 1745 UTC 18 April 2019
Temperature: 12.0°C (54°F)
Dewpoint: 12.0°C (54°F) [RH = 100%]
Pressure (altimeter): 29.62 inches Hg (1003.1 mb)
Winds: from the W (260 degrees) at 10 MPH (9 knots; 4.6 m/s)
Visibility: 1.00 miles (1.61 km)
Ceiling: 800 feet AGL
Clouds: overcast cloud deck at 800 feet AGL
Weather: -RA  (light rain)

METAR text: KGYY 181645Z 28010KT 2SM -RA OVC006 12/12 A2959
Conditions at: KGYY (GARY REGIONAL , IN, US) observed 1645 UTC 18 April 2019
Temperature: 12.0°C (54°F)
Dewpoint: 12.0°C (54°F) [RH = 100%]
Pressure (altimeter): 29.59 inches Hg (1002.1 mb)
Winds: from the W (280 degrees) at 12 MPH (10 knots; 5.1 m/s)
Visibility: 2.00 miles (3.22 km)
Ceiling: 600 feet AGL
Clouds: overcast cloud deck at 600 feet AGL
Weather: -RA  (light rain)

METAR text: KGYY 181545Z 27010KT 2SM -RA OVC005 13/13 A2959
Conditions at: KGYY (GARY REGIONAL , IN, US) observed 1545 UTC 18 April 2019
Temperature: 13.0°C (55°F)
Dewpoint: 13.0°C (55°F) [RH = 100%]
Pressure (altimeter): 29.59 inches Hg (1002.1 mb)
Winds: from the W (270 degrees) at 12 MPH (10 knots; 5.1 m/s)
Visibility: 2.00 miles (3.22 km)
Ceiling: 500 feet AGL
Clouds: overcast cloud deck at 500 feet AGL
Weather: -RA  (light rain)

METAR text: KGYY 181445Z 28007KT 3SM -RA OVC005 13/13 A2957
Conditions at: KGYY (GARY REGIONAL , IN, US) observed 1445 UTC 18 April 2019
Temperature: 13.0°C (55°F)
Dewpoint: 13.0°C (55°F) [RH = 100%]
Pressure (altimeter): 29.57 inches Hg (1001.4 mb)
Winds: from the W (280 degrees) at 8 MPH (7 knots; 3.6 m/s)
Visibility: 3 miles ( 5 km)
Ceiling: 500 feet AGL
Clouds: overcast cloud deck at 500 feet AGL
Weather: -RA  (light rain)

METAR text: KGYY 181345Z 27006KT 5SM BR OVC007 14/13 A2957
Conditions at: KGYY (GARY REGIONAL , IN, US) observed 1345 UTC 18 April 2019
Temperature: 14.0°C (57°F)
Dewpoint: 13.0°C (55°F) [RH = 94%]
Pressure (altimeter): 29.57 inches Hg (1001.4 mb)
Winds: from the W (270 degrees) at 7 MPH (6 knots; 3.1 m/s)
Visibility: 5 miles ( 8 km)
Ceiling: 700 feet AGL
Clouds: overcast cloud deck at 700 feet AGL
Weather: BR  (mist)

METAR text: KGYY 181245Z 27010KT 5SM BR OVC007 14/13 A2956
Conditions at: KGYY (GARY REGIONAL , IN, US) observed 1245 UTC 18 April 2019
Temperature: 14.0°C (57°F)
Dewpoint: 13.0°C (55°F) [RH = 94%]
Pressure (altimeter): 29.56 inches Hg (1001.1 mb)
Winds: from the W (270 degrees) at 12 MPH (10 knots; 5.1 m/s)
Visibility: 5 miles ( 8 km)
Ceiling: 700 feet AGL
Clouds: overcast cloud deck at 700 feet AGL
Weather: BR  (mist)

METAR text: KGYY 181145Z 25009KT 7SM BKN006 OVC010 17/17 A2956 RMK RAE28
Conditions at: KGYY (GARY REGIONAL , IN, US) observed 1145 UTC 18 April 2019
Temperature: 17.0°C (63°F)
Dewpoint: 17.0°C (63°F) [RH = 100%]
Pressure (altimeter): 29.56 inches Hg (1001.1 mb)
Winds: from the WSW (250 degrees) at 10 MPH (9 knots; 4.6 m/s)
Visibility: 7 miles (11 km)
Ceiling: 600 feet AGL
Clouds: broken clouds at 600 feet AGL
overcast cloud deck at 1000 feet AGL
Weather: no significant weather observed at this time

METAR text: KGYY 181045Z 23010G22KT 5SM -RA BKN013 OVC075 17/17 A2958
Conditions at: KGYY (GARY REGIONAL , IN, US) observed 1045 UTC 18 April 2019
Temperature: 17.0°C (63°F)
Dewpoint: 17.0°C (63°F) [RH = 100%]
Pressure (altimeter): 29.58 inches Hg (1001.8 mb)
Winds: from the SW (230 degrees) at 12 MPH (10 knots; 5.1 m/s)
gusting to 25 MPH (22 knots; 11.3 m/s)
Visibility: 5 miles ( 8 km)
Ceiling: 1300 feet AGL
Clouds: broken clouds at 1300 feet AGL
overcast cloud deck at 7500 feet AGL
Weather: -RA  (light rain)

METAR text: KGYY 181018Z 21015KT 3SM +RA BKN010 OVC030 18/17 A2957 RMK OCNL LTG IC DNST NE TSE10
Conditions at: KGYY (GARY REGIONAL , IN, US) observed 1018 UTC 18 April 2019
Temperature: 18.0°C (64°F)
Dewpoint: 17.0°C (63°F) [RH = 94%]
Pressure (altimeter): 29.57 inches Hg (1001.4 mb)
Winds: from the SSW (210 degrees) at 17 MPH (15 knots; 7.7 m/s)
Visibility: 3 miles ( 5 km)
Ceiling: 1000 feet AGL
Clouds: broken clouds at 1000 feet AGL
overcast cloud deck at 3000 feet AGL
Weather: +RA  (heavy rain)

METAR text: KGYY 180945Z 23008G20KT 4SM -TSRA BKN020 OVC043 19/16 A2956 RMK OCNL LTG ICCC SW-W RAB40 TSB40 TS SW MOV NE
Conditions at: KGYY (GARY REGIONAL , IN, US) observed 0945 UTC 18 April 2019
Temperature: 19.0°C (66°F)
Dewpoint: 16.0°C (61°F) [RH = 83%]
Pressure (altimeter): 29.56 inches Hg (1001.1 mb)
Winds: from the SW (230 degrees) at 9 MPH (8 knots; 4.1 m/s)
gusting to 23 MPH (20 knots; 10.3 m/s)
Visibility: 4 miles ( 6 km)
Ceiling: 2000 feet AGL
Clouds: broken clouds at 2000 feet AGL
overcast cloud deck at 4300 feet AGL
Weather: -TSRA  (light rain associated with thunderstorm(s))

METAR text: KGYY 180915Z AUTO 21006KT 10SM BKN120 19/16 A2957 RMK AO2 LTG DSNT SW T01880160
Conditions at: KGYY (GARY REGIONAL , IN, US) observed 0915 UTC 18 April 2019
Temperature: 18.8°C (66°F)
Dewpoint: 16.0°C (61°F) [RH = 84%]
Pressure (altimeter): 29.57 inches Hg (1001.4 mb)
Winds: from the SSW (210 degrees) at 7 MPH (6 knots; 3.1 m/s)
Visibility: 10 or more miles (16+ km)
Ceiling: 12000 feet AGL
Clouds: broken clouds at 12000 feet AGL
Weather: automated observation with no human augmentation;
there may or may not be significant weather present at this time

METAR text: KGYY 180855Z AUTO 22007G15KT 190V250 10SM CLR 19/16 A2957 RMK AO2 LTG DSNT S T01870158
Conditions at: KGYY (GARY REGIONAL , IN, US) observed 0855 UTC 18 April 2019
Temperature: 18.7°C (66°F)
Dewpoint: 15.8°C (60°F) [RH = 83%]
Pressure (altimeter): 29.57 inches Hg (1001.4 mb)
Winds: from the SW (220 degrees) at 8 MPH (7 knots; 3.6 m/s)
gusting to 17 MPH (15 knots; 7.7 m/s)
Visibility: 10 or more miles (16+ km)
Ceiling: at least 12,000 feet AGL
Clouds: sky clear below 12,000 feet AGL
Weather: automated observation with no human augmentation;
there may or may not be significant weather present at this time

METAR text: KGYY 180835Z AUTO 22005G16KT 10SM CLR 19/16 A2957 RMK AO2 T01860158
Conditions at: KGYY (GARY REGIONAL , IN, US) observed 0835 UTC 18 April 2019
Temperature: 18.6°C (65°F)
Dewpoint: 15.8°C (60°F) [RH = 84%]
Pressure (altimeter): 29.57 inches Hg (1001.4 mb)
Winds: from the SW (220 degrees) at 6 MPH (5 knots; 2.6 m/s)
gusting to 18 MPH (16 knots; 8.2 m/s)
Visibility: 10 or more miles (16+ km)
Ceiling: at least 12,000 feet AGL
Clouds: sky clear below 12,000 feet AGL
Weather: automated observation with no human augmentation;
there may or may not be significant weather present at this time

METAR text: KGYY 180815Z AUTO 21010G17KT 160V220 10SM SCT060 19/16 A2957 RMK AO2 T01860155
Conditions at: KGYY (GARY REGIONAL , IN, US) observed 0815 UTC 18 April 2019
Temperature: 18.6°C (65°F)
Dewpoint: 15.5°C (60°F) [RH = 82%]
Pressure (altimeter): 29.57 inches Hg (1001.4 mb)
Winds: from the SSW (210 degrees) at 12 MPH (10 knots; 5.1 m/s)
gusting to 20 MPH (17 knots; 8.7 m/s)
Visibility: 10 or more miles (16+ km)
Ceiling: at least 12,000 feet AGL
Clouds: scattered clouds at 6000 feet AGL
Weather: automated observation with no human augmentation;
there may or may not be significant weather present at this time

METAR text: KGYY 180755Z AUTO 20011G16KT 180V240 10SM SCT041 SCT047 BKN050 19/15 A2958 RMK AO2 T01870154
Conditions at: KGYY (GARY REGIONAL , IN, US) observed 0755 UTC 18 April 2019
Temperature: 18.7°C (66°F)
Dewpoint: 15.4°C (60°F) [RH = 81%]
Pressure (altimeter): 29.58 inches Hg (1001.8 mb)
Winds: from the SSW (200 degrees) at 13 MPH (11 knots; 5.7 m/s)
gusting to 18 MPH (16 knots; 8.2 m/s)
Visibility: 10 or more miles (16+ km)
Ceiling: 5000 feet AGL
Clouds: scattered clouds at 4100 feet AGL
scattered clouds at 4700 feet AGL
broken clouds at 5000 feet AGL
Weather: automated observation with no human augmentation;
there may or may not be significant weather present at this time

METAR text: KGYY 180735Z AUTO 21010G17KT 180V240 10SM SCT049 SCT055 19/15 A2957 RMK AO2 T01850152
Conditions at: KGYY (GARY REGIONAL , IN, US) observed 0735 UTC 18 April 2019
Temperature: 18.5°C (65°F)
Dewpoint: 15.2°C (59°F) [RH = 81%]
Pressure (altimeter): 29.57 inches Hg (1001.4 mb)
Winds: from the SSW (210 degrees) at 12 MPH (10 knots; 5.1 m/s)
gusting to 20 MPH (17 knots; 8.7 m/s)
Visibility: 10 or more miles (16+ km)
Ceiling: at least 12,000 feet AGL
Clouds: scattered clouds at 4900 feet AGL
scattered clouds at 5500 feet AGL
Weather: automated observation with no human augmentation;
there may or may not be significant weather present at this time

METAR text: KGYY 180715Z AUTO 19012G16KT 10SM CLR 19/15 A2957 RMK AO2 T01850152
Conditions at: KGYY (GARY REGIONAL , IN, US) observed 0715 UTC 18 April 2019
Temperature: 18.5°C (65°F)
Dewpoint: 15.2°C (59°F) [RH = 81%]
Pressure (altimeter): 29.57 inches Hg (1001.4 mb)
Winds: from the S (190 degrees) at 14 MPH (12 knots; 6.2 m/s)
gusting to 18 MPH (16 knots; 8.2 m/s)
Visibility: 10 or more miles (16+ km)
Ceiling: at least 12,000 feet AGL
Clouds: sky clear below 12,000 feet AGL
Weather: automated observation with no human augmentation;
there may or may not be significant weather present at this time

METAR text: KGYY 180655Z AUTO 21009G19KT 170V230 10SM CLR 19/15 A2958 RMK AO2 LTG DSNT SW T01870152
Conditions at: KGYY (GARY REGIONAL , IN, US) observed 0655 UTC 18 April 2019
Temperature: 18.7°C (66°F)
Dewpoint: 15.2°C (59°F) [RH = 80%]
Pressure (altimeter): 29.58 inches Hg (1001.8 mb)
Winds: from the SSW (210 degrees) at 10 MPH (9 knots; 4.6 m/s)
gusting to 22 MPH (19 knots; 9.8 m/s)
Visibility: 10 or more miles (16+ km)
Ceiling: at least 12,000 feet AGL
Clouds: sky clear below 12,000 feet AGL
Weather: automated observation with no human augmentation;
there may or may not be significant weather present at this time

METAR text: KGYY 180635Z AUTO 20009G19KT 130V230 10SM CLR 19/15 A2959 RMK AO2 T01880152
Conditions at: KGYY (GARY REGIONAL , IN, US) observed 0635 UTC 18 April 2019
Temperature: 18.8°C (66°F)
Dewpoint: 15.2°C (59°F) [RH = 80%]
Pressure (altimeter): 29.59 inches Hg (1002.1 mb)
Winds: from the SSW (200 degrees) at 10 MPH (9 knots; 4.6 m/s)
gusting to 22 MPH (19 knots; 9.8 m/s)
Visibility: 10 or more miles (16+ km)
Ceiling: at least 12,000 feet AGL
Clouds: sky clear below 12,000 feet AGL
Weather: automated observation with no human augmentation;
there may or may not be significant weather present at this time

Forecast for: KGYY (GARY REGIONAL , IN, US)
Text: KGYY 191733Z 1918/2018 36024G36KT P6SM OVC010
Forecast period: 1800 to 2000 UTC 19 April 2019
Forecast type: FROM: standard forecast or significant change
Winds: from the N (360 degrees) at 28 MPH (24 knots; 12.3 m/s)
gusting to 41 MPH (36 knots; 18.5 m/s)
Visibility: 6 or more miles 10+ km)
Ceiling: 1000 feet AGL
Clouds: overcast cloud deck at 1000 feet AGL
Weather: no significant weather forecast for this period
Text: FM192000 36026G36KT P6SM BKN035 BKN150
Forecast period: 2000 UTC 19 April 2019 to 0300 UTC 20 April 2019
Forecast type: FROM: standard forecast or significant change
Winds: from the N (360 degrees) at 30 MPH (26 knots; 13.4 m/s)
gusting to 41 MPH (36 knots; 18.5 m/s)
Visibility: 6 or more miles 10+ km)
Ceiling: 3500 feet AGL
Clouds: broken clouds at 3500 feet AGL
broken clouds at 15000 feet AGL
Weather: no significant weather forecast for this period
Text: FM200300 01019G29KT P6SM SCT150
Forecast period: 0300 to 1800 UTC 20 April 2019
Forecast type: FROM: standard forecast or significant change
Winds: from the N (10 degrees) at 22 MPH (19 knots; 9.8 m/s)
gusting to 33 MPH (29 knots; 14.9 m/s)
Visibility: 6 or more miles 10+ km)
Ceiling: at least 12,000 feet AGL
Clouds: scattered clouds at 15000 feet AGL
Weather: no significant weather forecast for this period